createdAt,value
2017-02-21T00:00:00.125Z,870.44
2017-02-21T00:00:04.670Z,870.45
2017-02-21T00:00:09.152Z,870.43
2017-02-21T00:00:13.516Z,870.45
2017-02-21T00:00:18.162Z,870.44
2017-02-21T00:00:22.819Z,870.43
2017-02-21T00:00:27.328Z,870.42
2017-02-21T00:00:31.993Z,870.46
2017-02-21T00:00:36.664Z,870.44
2017-02-21T00:00:41.155Z,870.5
2017-02-21T00:00:45.806Z,870.47
2017-02-21T00:00:50.448Z,870.46
2017-02-21T00:00:55.087Z,870.5
2017-02-21T00:00:59.586Z,870.46
2017-02-21T00:01:04.230Z,870.46
2017-02-21T00:01:08.733Z,870.46
2017-02-21T00:01:13.416Z,870.46
2017-02-21T00:01:17.913Z,870.48
2017-02-21T00:01:22.582Z,870.47
2017-02-21T00:01:27.113Z,870.47
2017-02-21T00:01:31.613Z,870.45
2017-02-21T00:01:36.267Z,870.48
2017-02-21T00:01:40.764Z,870.46
2017-02-21T00:01:45.408Z,870.44
2017-02-21T00:01:49.919Z,870.46
2017-02-21T00:01:54.579Z,870.47
2017-02-21T00:01:59.224Z,870.44
2017-02-21T00:02:03.881Z,870.45
2017-02-21T00:02:08.387Z,870.43
2017-02-21T00:02:13.026Z,870.47
2017-02-21T00:02:17.396Z,870.43
2017-02-21T00:02:22.054Z,870.43
2017-02-21T00:02:26.443Z,870.42
2017-02-21T00:02:31.090Z,870.46
2017-02-21T00:02:35.728Z,870.45
2017-02-21T00:02:40.266Z,870.47
2017-02-21T00:02:44.758Z,870.47
2017-02-21T00:02:49.108Z,870.47
2017-02-21T00:02:53.629Z,870.45
2017-02-21T00:02:58.272Z,870.42
2017-02-21T00:03:03.214Z,870.44
2017-02-21T00:03:07.858Z,870.42
2017-02-21T00:03:12.425Z,870.45
2017-02-21T00:03:17.078Z,870.43
2017-02-21T00:03:21.606Z,870.47
2017-02-21T00:03:26.265Z,870.48
2017-02-21T00:03:30.921Z,870.45
2017-02-21T00:03:35.574Z,870.44
2017-02-21T00:03:39.919Z,870.5
2017-02-21T00:03:44.580Z,870.47
2017-02-21T00:03:48.930Z,870.45
2017-02-21T00:03:53.566Z,870.44
2017-02-21T00:03:58.195Z,870.49
2017-02-21T00:04:02.694Z,870.42
2017-02-21T00:04:07.186Z,870.44
2017-02-21T00:04:11.535Z,870.48
2017-02-21T00:04:16.188Z,870.47
2017-02-21T00:04:20.696Z,870.48
2017-02-21T00:04:25.189Z,870.49
2017-02-21T00:04:29.857Z,870.47
2017-02-21T00:04:34.504Z,870.49
2017-02-21T00:04:39.181Z,870.47
2017-02-21T00:04:43.690Z,870.48
2017-02-21T00:04:48.052Z,870.45
2017-02-21T00:04:52.709Z,870.51
2017-02-21T00:04:57.350Z,870.52
2017-02-21T00:05:02.002Z,870.48
2017-02-21T00:05:06.542Z,870.51
2017-02-21T00:05:11.187Z,870.49
2017-02-21T00:05:15.685Z,870.45
2017-02-21T00:05:20.359Z,870.47
2017-02-21T00:05:24.850Z,870.44
2017-02-21T00:05:29.505Z,870.45
2017-02-21T00:05:34.162Z,870.46
2017-02-21T00:05:38.851Z,870.48
2017-02-21T00:05:43.504Z,870.42
2017-02-21T00:05:48.147Z,870.44
2017-02-21T00:05:52.802Z,870.44
2017-02-21T00:05:57.432Z,870.44
2017-02-21T00:06:02.274Z,870.45
2017-02-21T00:06:06.962Z,870.44
2017-02-21T00:06:11.465Z,870.45
2017-02-21T00:06:15.952Z,870.43
2017-02-21T00:06:20.579Z,870.44
2017-02-21T00:06:25.239Z,870.4
2017-02-21T00:06:29.901Z,870.41
2017-02-21T00:06:34.531Z,870.42
2017-02-21T00:06:38.915Z,870.43
2017-02-21T00:06:43.548Z,870.43
2017-02-21T00:06:48.200Z,870.43
2017-02-21T00:06:52.859Z,870.43
2017-02-21T00:06:57.516Z,870.42
2017-02-21T00:07:02.143Z,870.38
2017-02-21T00:07:06.822Z,870.38
2017-02-21T00:07:11.464Z,870.39
2017-02-21T00:07:15.808Z,870.35
2017-02-21T00:07:20.450Z,870.4
2017-02-21T00:07:24.965Z,870.39
2017-02-21T00:07:29.603Z,870.42
2017-02-21T00:07:34.286Z,870.43
2017-02-21T00:07:38.778Z,870.39
2017-02-21T00:07:43.421Z,870.38
2017-02-21T00:07:47.769Z,870.36
2017-02-21T00:07:52.261Z,870.38
2017-02-21T00:07:56.909Z,870.4
2017-02-21T00:08:01.410Z,870.39
2017-02-21T00:08:06.323Z,870.4
2017-02-21T00:08:10.544Z,870.42
2017-02-21T00:08:15.073Z,870.4
2017-02-21T00:08:19.721Z,870.42
2017-02-21T00:08:24.376Z,870.41
2017-02-21T00:08:29.014Z,870.45
2017-02-21T00:08:33.660Z,870.43
2017-02-21T00:08:38.311Z,870.4
2017-02-21T00:08:42.802Z,870.39
2017-02-21T00:08:47.296Z,870.37
2017-02-21T00:08:51.636Z,870.4
2017-02-21T00:08:56.285Z,870.4
2017-02-21T00:09:00.984Z,870.38
2017-02-21T00:09:05.711Z,870.36
2017-02-21T00:09:10.213Z,870.38
2017-02-21T00:09:14.712Z,870.4
2017-02-21T00:09:19.384Z,870.35
2017-02-21T00:09:24.032Z,870.39
2017-02-21T00:09:28.695Z,870.35
2017-02-21T00:09:33.354Z,870.4
2017-02-21T00:09:38.033Z,870.33
2017-02-21T00:09:42.425Z,870.36
2017-02-21T00:09:46.770Z,870.37
2017-02-21T00:09:51.428Z,870.37
2017-02-21T00:09:56.078Z,870.41
2017-02-21T00:10:00.742Z,870.4
2017-02-21T00:10:05.245Z,870.4
2017-02-21T00:10:09.738Z,870.42
2017-02-21T00:10:14.385Z,870.4
2017-02-21T00:10:19.043Z,870.4
2017-02-21T00:10:23.554Z,870.41
2017-02-21T00:10:28.046Z,870.39
2017-02-21T00:10:32.704Z,870.39
2017-02-21T00:10:37.360Z,870.4
2017-02-21T00:10:42.007Z,870.37
2017-02-21T00:10:46.685Z,870.38
2017-02-21T00:10:51.170Z,870.4
2017-02-21T00:10:55.823Z,870.42
2017-02-21T00:11:00.522Z,870.42
2017-02-21T00:11:05.013Z,870.37
2017-02-21T00:11:09.666Z,870.36
2017-02-21T00:11:14.319Z,870.39
2017-02-21T00:11:18.952Z,870.42
2017-02-21T00:11:23.473Z,870.4
2017-02-21T00:11:27.840Z,870.43
2017-02-21T00:11:32.482Z,870.41
2017-02-21T00:11:36.988Z,870.41
2017-02-21T00:11:41.632Z,870.36
2017-02-21T00:11:45.976Z,870.4
2017-02-21T00:11:50.620Z,870.39
2017-02-21T00:11:55.270Z,870.43
2017-02-21T00:11:59.908Z,870.42
2017-02-21T00:12:04.898Z,870.44
2017-02-21T00:12:09.244Z,870.42
2017-02-21T00:12:13.894Z,870.45
2017-02-21T00:12:18.418Z,870.46
2017-02-21T00:12:23.057Z,870.44
2017-02-21T00:12:27.542Z,870.42
2017-02-21T00:12:32.205Z,870.39
2017-02-21T00:12:36.838Z,870.42
2017-02-21T00:12:41.479Z,870.42
2017-02-21T00:12:46.119Z,870.4
2017-02-21T00:12:50.630Z,870.41
2017-02-21T00:12:55.286Z,870.39
2017-02-21T00:12:59.926Z,870.39
2017-02-21T00:13:04.732Z,870.42
2017-02-21T00:13:09.227Z,870.42
2017-02-21T00:13:13.579Z,870.4
2017-02-21T00:13:18.261Z,870.41
2017-02-21T00:13:22.766Z,870.4
2017-02-21T00:13:27.265Z,870.42
2017-02-21T00:13:31.918Z,870.43
2017-02-21T00:13:36.561Z,870.42
2017-02-21T00:13:41.063Z,870.44
2017-02-21T00:13:45.563Z,870.42
2017-02-21T00:13:50.078Z,870.44
2017-02-21T00:13:54.425Z,870.37
2017-02-21T00:13:58.915Z,870.39
2017-02-21T00:14:03.822Z,870.4
2017-02-21T00:14:08.307Z,870.39
2017-02-21T00:14:12.674Z,870.43
2017-02-21T00:14:17.312Z,870.45
2017-02-21T00:14:21.964Z,870.41
2017-02-21T00:14:26.470Z,870.42
2017-02-21T00:14:30.995Z,870.47
2017-02-21T00:14:35.640Z,870.42
2017-02-21T00:14:40.304Z,870.46
2017-02-21T00:14:44.943Z,870.46
2017-02-21T00:14:49.607Z,870.44
2017-02-21T00:14:54.090Z,870.46
2017-02-21T00:14:58.732Z,870.5
2017-02-21T00:15:03.547Z,870.47
2017-02-21T00:15:08.184Z,870.45
2017-02-21T00:15:12.812Z,870.43
2017-02-21T00:15:17.035Z,870.5
2017-02-21T00:15:21.537Z,870.47
2017-02-21T00:15:26.197Z,870.49
2017-02-21T00:15:30.680Z,870.47
2017-02-21T00:15:35.327Z,870.47
2017-02-21T00:15:39.844Z,870.47
2017-02-21T00:15:44.535Z,870.45
2017-02-21T00:15:49.014Z,870.49
2017-02-21T00:15:53.667Z,870.46
2017-02-21T00:15:58.159Z,870.43
2017-02-21T00:16:02.823Z,870.47
2017-02-21T00:16:07.483Z,870.44
2017-02-21T00:16:11.968Z,870.42
2017-02-21T00:16:16.610Z,870.45
2017-02-21T00:16:21.133Z,870.46
2017-02-21T00:16:25.783Z,870.42
2017-02-21T00:16:30.143Z,870.42
2017-02-21T00:16:34.794Z,870.39
2017-02-21T00:16:39.159Z,870.41
2017-02-21T00:16:43.807Z,870.46
2017-02-21T00:16:48.313Z,870.45
2017-02-21T00:16:52.802Z,870.46
2017-02-21T00:16:57.475Z,870.42
2017-02-21T00:17:02.164Z,870.43
2017-02-21T00:17:06.662Z,870.46
2017-02-21T00:17:11.317Z,870.47
2017-02-21T00:17:15.955Z,870.48
2017-02-21T00:17:20.590Z,870.46
2017-02-21T00:17:24.985Z,870.48
2017-02-21T00:17:29.489Z,870.48
2017-02-21T00:17:33.998Z,870.45
2017-02-21T00:17:38.536Z,870.45
2017-02-21T00:17:43.222Z,870.47
2017-02-21T00:17:47.903Z,870.46
2017-02-21T00:17:52.400Z,870.47
2017-02-21T00:17:57.036Z,870.47
2017-02-21T00:18:01.658Z,870.49
2017-02-21T00:18:06.303Z,870.47
2017-02-21T00:18:10.821Z,870.48
2017-02-21T00:18:15.308Z,870.47
2017-02-21T00:18:19.940Z,870.5
2017-02-21T00:18:24.456Z,870.5
2017-02-21T00:18:29.123Z,870.5
2017-02-21T00:18:33.758Z,870.47
2017-02-21T00:18:38.390Z,870.49
2017-02-21T00:18:43.057Z,870.5
2017-02-21T00:18:47.697Z,870.48
2017-02-21T00:18:52.197Z,870.51
2017-02-21T00:18:56.831Z,870.45
2017-02-21T00:19:01.489Z,870.46
2017-02-21T00:19:05.990Z,870.51
2017-02-21T00:19:10.493Z,870.52
2017-02-21T00:19:14.990Z,870.5
2017-02-21T00:19:19.635Z,870.49
2017-02-21T00:19:24.296Z,870.54
2017-02-21T00:19:28.802Z,870.51
2017-02-21T00:19:33.303Z,870.51
2017-02-21T00:19:37.989Z,870.55
2017-02-21T00:19:42.622Z,870.51
2017-02-21T00:19:47.286Z,870.55
2017-02-21T00:19:51.935Z,870.52
2017-02-21T00:19:56.623Z,870.5
2017-02-21T00:20:01.119Z,870.52
2017-02-21T00:20:05.766Z,870.51
2017-02-21T00:20:10.111Z,870.48
2017-02-21T00:20:14.453Z,870.52
2017-02-21T00:20:19.119Z,870.52
2017-02-21T00:20:23.766Z,870.51
2017-02-21T00:20:28.105Z,870.53
2017-02-21T00:20:32.750Z,870.5
2017-02-21T00:20:37.390Z,870.51
2017-02-21T00:20:42.031Z,870.53
2017-02-21T00:20:46.563Z,870.51
2017-02-21T00:20:51.206Z,870.55
2017-02-21T00:20:55.697Z,870.52
2017-02-21T00:21:00.058Z,870.56
2017-02-21T00:21:04.704Z,870.49
2017-02-21T00:21:09.221Z,870.52
2017-02-21T00:21:13.883Z,870.5
2017-02-21T00:21:18.545Z,870.52
2017-02-21T00:21:23.039Z,870.49
2017-02-21T00:21:27.679Z,870.49
2017-02-21T00:21:32.320Z,870.52
2017-02-21T00:21:36.835Z,870.52
2017-02-21T00:21:41.328Z,870.52
2017-02-21T00:21:45.969Z,870.55
2017-02-21T00:21:50.495Z,870.5
2017-02-21T00:21:55.006Z,870.52
2017-02-21T00:21:59.665Z,870.54
2017-02-21T00:22:04.177Z,870.52
2017-02-21T00:22:08.678Z,870.51
2017-02-21T00:22:13.189Z,870.51
2017-02-21T00:22:17.828Z,870.5
2017-02-21T00:22:22.486Z,870.52
2017-02-21T00:22:27.147Z,870.52
2017-02-21T00:22:31.823Z,870.51
2017-02-21T00:22:36.336Z,870.52
2017-02-21T00:22:40.698Z,870.51
2017-02-21T00:22:45.350Z,870.56
2017-02-21T00:22:49.712Z,870.53
2017-02-21T00:22:54.354Z,870.54
2017-02-21T00:22:58.863Z,870.53
2017-02-21T00:23:03.364Z,870.5
2017-02-21T00:23:08.007Z,870.47
2017-02-21T00:23:12.524Z,870.51
2017-02-21T00:23:17.005Z,870.51
2017-02-21T00:23:21.670Z,870.52
2017-02-21T00:23:26.353Z,870.51
2017-02-21T00:23:31.007Z,870.5
2017-02-21T00:23:35.653Z,870.48
2017-02-21T00:23:40.192Z,870.49
2017-02-21T00:23:44.838Z,870.48
2017-02-21T00:23:49.341Z,870.46
2017-02-21T00:23:53.714Z,870.5
2017-02-21T00:23:58.349Z,870.48
2017-02-21T00:24:03.238Z,870.47
2017-02-21T00:24:07.756Z,870.45
2017-02-21T00:24:12.441Z,870.47
2017-02-21T00:24:16.941Z,870.48
2017-02-21T00:24:21.596Z,870.5
2017-02-21T00:24:26.243Z,870.47
2017-02-21T00:24:30.724Z,870.46
2017-02-21T00:24:35.366Z,870.49
2017-02-21T00:24:40.024Z,870.47
2017-02-21T00:24:44.532Z,870.48
2017-02-21T00:24:48.893Z,870.44
2017-02-21T00:24:53.531Z,870.46
2017-02-21T00:24:58.176Z,870.47
2017-02-21T00:25:02.693Z,870.48
2017-02-21T00:25:07.328Z,870.47
2017-02-21T00:25:11.837Z,870.49
2017-02-21T00:25:16.489Z,870.5
2017-02-21T00:25:20.975Z,870.49
2017-02-21T00:25:25.529Z,870.46
2017-02-21T00:25:30.183Z,870.5
2017-02-21T00:25:34.690Z,870.47
2017-02-21T00:25:39.201Z,870.46
2017-02-21T00:25:43.849Z,870.48
2017-02-21T00:25:48.490Z,870.47
2017-02-21T00:25:53.005Z,870.46
2017-02-21T00:25:57.519Z,870.47
2017-02-21T00:26:02.170Z,870.44
2017-02-21T00:26:06.855Z,870.44
2017-02-21T00:26:11.053Z,870.49
2017-02-21T00:26:15.695Z,870.48
2017-02-21T00:26:20.359Z,870.47
2017-02-21T00:26:24.865Z,870.47
2017-02-21T00:26:29.241Z,870.46
2017-02-21T00:26:33.924Z,870.5
2017-02-21T00:26:38.570Z,870.46
2017-02-21T00:26:43.209Z,870.45
2017-02-21T00:26:47.565Z,870.42
2017-02-21T00:26:52.085Z,870.43
2017-02-21T00:26:56.765Z,870.43
2017-02-21T00:27:01.307Z,870.44
2017-02-21T00:27:05.802Z,870.44
2017-02-21T00:27:10.475Z,870.37
2017-02-21T00:27:15.138Z,870.45
2017-02-21T00:27:19.796Z,870.46
2017-02-21T00:27:24.157Z,870.41
2017-02-21T00:27:28.795Z,870.43
2017-02-21T00:27:33.436Z,870.45
2017-02-21T00:27:38.090Z,870.43
2017-02-21T00:27:42.743Z,870.43
2017-02-21T00:27:47.286Z,870.45
2017-02-21T00:27:51.918Z,870.4
2017-02-21T00:27:56.553Z,870.42
2017-02-21T00:28:01.055Z,870.4
2017-02-21T00:28:05.692Z,870.45
2017-02-21T00:28:10.215Z,870.41
2017-02-21T00:28:14.864Z,870.45
2017-02-21T00:28:19.505Z,870.42
2017-02-21T00:28:24.000Z,870.42
2017-02-21T00:28:28.502Z,870.43
2017-02-21T00:28:33.186Z,870.39
2017-02-21T00:28:37.833Z,870.37
2017-02-21T00:28:42.344Z,870.43
2017-02-21T00:28:46.994Z,870.43
2017-02-21T00:28:51.479Z,870.42
2017-02-21T00:28:55.981Z,870.39
2017-02-21T00:29:00.662Z,870.38
2017-02-21T00:29:05.249Z,870.4
2017-02-21T00:29:09.762Z,870.41
2017-02-21T00:29:14.414Z,870.42
2017-02-21T00:29:19.074Z,870.38
2017-02-21T00:29:23.716Z,870.39
2017-02-21T00:29:28.210Z,870.38
2017-02-21T00:29:32.847Z,870.36
2017-02-21T00:29:37.495Z,870.41
2017-02-21T00:29:42.026Z,870.42
2017-02-21T00:29:46.522Z,870.4
2017-02-21T00:29:51.153Z,870.42
2017-02-21T00:29:55.845Z,870.39
2017-02-21T00:30:00.371Z,870.38
2017-02-21T00:30:04.872Z,870.4
2017-02-21T00:30:09.365Z,870.39
2017-02-21T00:30:14.050Z,870.39
2017-02-21T00:30:18.727Z,870.39
2017-02-21T00:30:23.224Z,870.4
2017-02-21T00:30:27.733Z,870.4
2017-02-21T00:30:32.377Z,870.39
2017-02-21T00:30:37.025Z,870.37
2017-02-21T00:30:41.705Z,870.35
2017-02-21T00:30:46.207Z,870.38
2017-02-21T00:30:50.704Z,870.37
2017-02-21T00:30:55.260Z,870.42
2017-02-21T00:30:59.905Z,870.4
2017-02-21T00:31:04.553Z,870.36
2017-02-21T00:31:09.185Z,870.4
2017-02-21T00:31:13.834Z,870.4
2017-02-21T00:31:18.489Z,870.42
2017-02-21T00:31:23.139Z,870.4
2017-02-21T00:31:27.784Z,870.4
2017-02-21T00:31:32.428Z,870.4
2017-02-21T00:31:37.066Z,870.38
2017-02-21T00:31:41.707Z,870.42
2017-02-21T00:31:46.213Z,870.38
2017-02-21T00:31:50.727Z,870.4
2017-02-21T00:31:55.362Z,870.4
2017-02-21T00:32:00.033Z,870.39
2017-02-21T00:32:04.936Z,870.39
2017-02-21T00:32:09.292Z,870.41
2017-02-21T00:32:13.964Z,870.42
2017-02-21T00:32:18.463Z,870.43
2017-02-21T00:32:23.107Z,870.42
2017-02-21T00:32:27.744Z,870.4
2017-02-21T00:32:32.368Z,870.43
2017-02-21T00:32:36.869Z,870.43
2017-02-21T00:32:41.383Z,870.43
2017-02-21T00:32:45.889Z,870.41
2017-02-21T00:32:50.399Z,870.43
2017-02-21T00:32:55.038Z,870.43
2017-02-21T00:32:59.537Z,870.39
2017-02-21T00:33:04.430Z,870.37
2017-02-21T00:33:08.974Z,870.34
2017-02-21T00:33:13.316Z,870.43
2017-02-21T00:33:17.962Z,870.46
2017-02-21T00:33:22.620Z,870.45
2017-02-21T00:33:27.128Z,870.39
2017-02-21T00:33:31.786Z,870.4
2017-02-21T00:33:36.447Z,870.4
2017-02-21T00:33:41.098Z,870.39
2017-02-21T00:33:45.753Z,870.43
2017-02-21T00:33:50.414Z,870.45
2017-02-21T00:33:55.063Z,870.42
2017-02-21T00:33:59.562Z,870.47
2017-02-21T00:34:04.208Z,870.47
2017-02-21T00:34:08.702Z,870.49
2017-02-21T00:34:12.750Z,870.46
2017-02-21T00:34:17.455Z,870.43
2017-02-21T00:34:21.947Z,870.43
2017-02-21T00:34:26.451Z,870.48
2017-02-21T00:34:31.086Z,870.5
2017-02-21T00:34:35.734Z,870.47
2017-02-21T00:34:40.391Z,870.44
2017-02-21T00:34:45.048Z,870.47
2017-02-21T00:34:49.722Z,870.46
2017-02-21T00:34:54.421Z,870.47
2017-02-21T00:34:59.062Z,870.49
2017-02-21T00:35:03.825Z,870.46
2017-02-21T00:35:08.195Z,870.41
2017-02-21T00:35:12.679Z,870.43
2017-02-21T00:35:17.336Z,870.48
2017-02-21T00:35:22.038Z,870.43
2017-02-21T00:35:26.550Z,870.44
2017-02-21T00:35:31.053Z,870.48
2017-02-21T00:35:35.688Z,870.46
2017-02-21T00:35:40.233Z,870.46
2017-02-21T00:35:44.895Z,870.47
2017-02-21T00:35:49.546Z,870.47
2017-02-21T00:35:54.047Z,870.47
2017-02-21T00:35:58.696Z,870.46
2017-02-21T00:36:03.509Z,870.5
2017-02-21T00:36:08.158Z,870.51
2017-02-21T00:36:12.826Z,870.48
2017-02-21T00:36:17.355Z,870.47
2017-02-21T00:36:22.028Z,870.48
2017-02-21T00:36:26.371Z,870.46
2017-02-21T00:36:31.017Z,870.47
2017-02-21T00:36:35.647Z,870.46
2017-02-21T00:36:40.294Z,870.46
2017-02-21T00:36:44.937Z,870.48
2017-02-21T00:36:49.434Z,870.49
2017-02-21T00:36:54.122Z,870.47
2017-02-21T00:36:58.774Z,870.51
2017-02-21T00:37:03.437Z,870.49
2017-02-21T00:37:08.100Z,870.47
2017-02-21T00:37:12.601Z,870.48
2017-02-21T00:37:17.092Z,870.51
2017-02-21T00:37:21.604Z,870.52
2017-02-21T00:37:26.267Z,870.5
2017-02-21T00:37:30.931Z,870.52
2017-02-21T00:37:35.598Z,870.5
2017-02-21T00:37:40.117Z,870.46
2017-02-21T00:37:44.767Z,870.44
2017-02-21T00:37:49.289Z,870.54
2017-02-21T00:37:53.799Z,870.54
2017-02-21T00:37:58.449Z,870.55
2017-02-21T00:38:03.103Z,870.5
2017-02-21T00:38:07.759Z,870.54
2017-02-21T00:38:12.258Z,870.51
2017-02-21T00:38:16.594Z,870.52
2017-02-21T00:38:21.249Z,870.49
2017-02-21T00:38:25.756Z,870.49
2017-02-21T00:38:30.391Z,870.51
2017-02-21T00:38:35.033Z,870.55
2017-02-21T00:38:39.526Z,870.53
2017-02-21T00:38:44.208Z,870.53
2017-02-21T00:38:48.865Z,870.55
2017-02-21T00:38:53.540Z,870.56
2017-02-21T00:38:58.198Z,870.55
2017-02-21T00:39:02.868Z,870.57
2017-02-21T00:39:07.594Z,870.58
2017-02-21T00:39:12.237Z,870.58
2017-02-21T00:39:16.882Z,870.58
2017-02-21T00:39:21.403Z,870.58
2017-02-21T00:39:25.916Z,870.59
2017-02-21T00:39:30.567Z,870.62
2017-02-21T00:39:35.213Z,870.58
2017-02-21T00:39:39.877Z,870.58
2017-02-21T00:39:44.523Z,870.61
2017-02-21T00:39:49.056Z,870.6
2017-02-21T00:39:53.704Z,870.62
2017-02-21T00:39:58.342Z,870.59
2017-02-21T00:40:02.993Z,870.6
2017-02-21T00:40:07.489Z,870.62
2017-02-21T00:40:11.858Z,870.63
2017-02-21T00:40:16.061Z,870.6
2017-02-21T00:40:20.704Z,870.57
2017-02-21T00:40:25.208Z,870.6
2017-02-21T00:40:29.851Z,870.57
2017-02-21T00:40:34.493Z,870.58
2017-02-21T00:40:39.145Z,870.57
2017-02-21T00:40:43.786Z,870.61
2017-02-21T00:40:48.269Z,870.63
2017-02-21T00:40:52.769Z,870.62
2017-02-21T00:40:57.405Z,870.61
2017-02-21T00:41:02.012Z,870.64
2017-02-21T00:41:06.651Z,870.61
2017-02-21T00:41:11.328Z,870.63
2017-02-21T00:41:15.836Z,870.63
2017-02-21T00:41:20.482Z,870.63
2017-02-21T00:41:24.979Z,870.64
2017-02-21T00:41:29.619Z,870.63
2017-02-21T00:41:34.108Z,870.62
2017-02-21T00:41:38.752Z,870.65
2017-02-21T00:41:43.392Z,870.64
2017-02-21T00:41:48.049Z,870.64
2017-02-21T00:41:52.686Z,870.66
2017-02-21T00:41:57.322Z,870.63
2017-02-21T00:42:01.970Z,870.65
2017-02-21T00:42:06.467Z,870.65
2017-02-21T00:42:10.990Z,870.66
2017-02-21T00:42:15.505Z,870.64
2017-02-21T00:42:19.898Z,870.67
2017-02-21T00:42:24.396Z,870.63
2017-02-21T00:42:29.072Z,870.65
2017-02-21T00:42:33.738Z,870.68
2017-02-21T00:42:38.369Z,870.7
2017-02-21T00:42:42.875Z,870.65
2017-02-21T00:42:47.374Z,870.66
2017-02-21T00:42:52.040Z,870.63
2017-02-21T00:42:56.529Z,870.68
2017-02-21T00:43:01.018Z,870.61
2017-02-21T00:43:05.669Z,870.68
2017-02-21T00:43:10.308Z,870.67
2017-02-21T00:43:14.835Z,870.68
2017-02-21T00:43:19.518Z,870.71
2017-02-21T00:43:24.026Z,870.69
2017-02-21T00:43:28.555Z,870.7
2017-02-21T00:43:33.206Z,870.68
2017-02-21T00:43:37.851Z,870.71
2017-02-21T00:43:42.354Z,870.67
2017-02-21T00:43:47.005Z,870.68
2017-02-21T00:43:51.697Z,870.7
2017-02-21T00:43:56.341Z,870.68
2017-02-21T00:44:00.975Z,870.67
2017-02-21T00:44:05.778Z,870.69
2017-02-21T00:44:10.522Z,870.65
2017-02-21T00:44:15.154Z,870.72
2017-02-21T00:44:19.815Z,870.73
2017-02-21T00:44:24.474Z,870.72
2017-02-21T00:44:29.122Z,870.71
2017-02-21T00:44:33.772Z,870.72
2017-02-21T00:44:38.439Z,870.71
2017-02-21T00:44:42.938Z,870.75
2017-02-21T00:44:47.285Z,870.75
2017-02-21T00:44:51.827Z,870.76
2017-02-21T00:44:56.490Z,870.76
2017-02-21T00:45:00.976Z,870.72
2017-02-21T00:45:05.901Z,870.72
2017-02-21T00:45:10.386Z,870.75
2017-02-21T00:45:14.730Z,870.75
2017-02-21T00:45:19.371Z,870.74
2017-02-21T00:45:24.030Z,870.75
2017-02-21T00:45:28.682Z,870.78
2017-02-21T00:45:33.323Z,870.68
2017-02-21T00:45:37.957Z,870.69
2017-02-21T00:45:42.463Z,870.7
2017-02-21T00:45:46.961Z,870.74
2017-02-21T00:45:51.450Z,870.76
2017-02-21T00:45:55.931Z,870.76
2017-02-21T00:46:00.444Z,870.77
2017-02-21T00:46:04.928Z,870.74
2017-02-21T00:46:09.584Z,870.81
2017-02-21T00:46:13.946Z,870.79
2017-02-21T00:46:18.433Z,870.78
2017-02-21T00:46:22.933Z,870.78
2017-02-21T00:46:27.286Z,870.8
2017-02-21T00:46:31.988Z,870.76
2017-02-21T00:46:36.634Z,870.8
2017-02-21T00:46:41.132Z,870.78
2017-02-21T00:46:45.776Z,870.76
2017-02-21T00:46:50.424Z,870.77
2017-02-21T00:46:54.949Z,870.8
2017-02-21T00:46:59.452Z,870.78
2017-02-21T00:47:04.232Z,870.83
2017-02-21T00:47:08.887Z,870.75
2017-02-21T00:47:13.534Z,870.81
2017-02-21T00:47:18.186Z,870.8
2017-02-21T00:47:22.716Z,870.81
2017-02-21T00:47:27.357Z,870.79
2017-02-21T00:47:31.852Z,870.78
2017-02-21T00:47:36.370Z,870.8
2017-02-21T00:47:41.008Z,870.75
2017-02-21T00:47:45.660Z,870.75
2017-02-21T00:47:50.162Z,870.73
2017-02-21T00:47:54.657Z,870.77
2017-02-21T00:47:59.158Z,870.75
2017-02-21T00:48:03.656Z,870.78
2017-02-21T00:48:08.316Z,870.82
2017-02-21T00:48:12.954Z,870.81
2017-02-21T00:48:17.159Z,870.83
2017-02-21T00:48:21.800Z,870.84
2017-02-21T00:48:26.309Z,870.83
2017-02-21T00:48:30.951Z,870.83
2017-02-21T00:48:35.589Z,870.84
2017-02-21T00:48:40.249Z,870.84
2017-02-21T00:48:44.898Z,870.86
2017-02-21T00:48:49.391Z,870.86
2017-02-21T00:48:54.048Z,870.86
2017-02-21T00:48:58.696Z,870.85
2017-02-21T00:49:03.204Z,870.86
2017-02-21T00:49:07.864Z,870.87
2017-02-21T00:49:12.515Z,870.87
2017-02-21T00:49:17.012Z,870.85
2017-02-21T00:49:21.522Z,870.87
2017-02-21T00:49:25.727Z,870.89
2017-02-21T00:49:30.377Z,870.85
2017-02-21T00:49:35.026Z,870.85
2017-02-21T00:49:39.675Z,870.91
2017-02-21T00:49:44.325Z,870.87
2017-02-21T00:49:48.813Z,870.89
2017-02-21T00:49:53.314Z,870.9
2017-02-21T00:49:57.969Z,870.9
2017-02-21T00:50:02.679Z,870.9
2017-02-21T00:50:07.186Z,870.87
2017-02-21T00:50:11.822Z,870.9
2017-02-21T00:50:16.461Z,870.88
2017-02-21T00:50:21.101Z,870.86
2017-02-21T00:50:25.744Z,870.85
2017-02-21T00:50:30.395Z,870.9
2017-02-21T00:50:35.029Z,870.86
2017-02-21T00:50:39.388Z,870.86
2017-02-21T00:50:44.036Z,870.85
2017-02-21T00:50:48.573Z,870.85
2017-02-21T00:50:53.083Z,870.9
2017-02-21T00:50:57.738Z,870.91
2017-02-21T00:51:02.424Z,870.9
2017-02-21T00:51:07.090Z,870.91
2017-02-21T00:51:11.727Z,870.91
2017-02-21T00:51:16.221Z,870.9
2017-02-21T00:51:20.903Z,870.93
2017-02-21T00:51:25.390Z,870.93
2017-02-21T00:51:29.723Z,870.94
2017-02-21T00:51:34.392Z,870.93
2017-02-21T00:51:39.111Z,870.94
2017-02-21T00:51:43.739Z,870.92
2017-02-21T00:51:48.422Z,870.94
2017-02-21T00:51:52.929Z,870.94
2017-02-21T00:51:57.451Z,870.93
2017-02-21T00:52:02.099Z,870.95
2017-02-21T00:52:06.450Z,870.93
2017-02-21T00:52:10.804Z,870.93
2017-02-21T00:52:15.314Z,870.95
2017-02-21T00:52:19.952Z,870.91
2017-02-21T00:52:24.465Z,870.94
2017-02-21T00:52:28.966Z,870.95
2017-02-21T00:52:33.617Z,870.95
2017-02-21T00:52:38.243Z,870.95
2017-02-21T00:52:42.743Z,870.93
2017-02-21T00:52:47.251Z,870.91
2017-02-21T00:52:51.901Z,870.96
2017-02-21T00:52:56.577Z,870.95
2017-02-21T00:53:01.061Z,870.94
2017-02-21T00:53:05.819Z,870.94
2017-02-21T00:53:10.470Z,870.94
2017-02-21T00:53:14.978Z,870.93
2017-02-21T00:53:19.629Z,870.94
2017-02-21T00:53:24.132Z,870.95
2017-02-21T00:53:28.479Z,870.94
2017-02-21T00:53:33.114Z,870.98
2017-02-21T00:53:37.751Z,870.96
2017-02-21T00:53:42.410Z,870.96
2017-02-21T00:53:46.891Z,870.91
2017-02-21T00:53:51.401Z,870.95
2017-02-21T00:53:55.911Z,870.96
2017-02-21T00:54:00.552Z,870.96
2017-02-21T00:54:05.196Z,870.95
2017-02-21T00:54:09.245Z,871
2017-02-21T00:54:13.752Z,870.99
2017-02-21T00:54:18.245Z,870.96
2017-02-21T00:54:22.886Z,870.98
2017-02-21T00:54:27.239Z,870.98
2017-02-21T00:54:31.892Z,871
2017-02-21T00:54:36.560Z,871.01
2017-02-21T00:54:40.909Z,870.98
2017-02-21T00:54:45.545Z,871
2017-02-21T00:54:49.905Z,870.98
2017-02-21T00:54:54.399Z,870.99
2017-02-21T00:54:58.908Z,871.01
2017-02-21T00:55:03.425Z,870.99
2017-02-21T00:55:07.953Z,871
2017-02-21T00:55:12.464Z,871
2017-02-21T00:55:16.946Z,871
2017-02-21T00:55:21.605Z,871
2017-02-21T00:55:26.100Z,870.99
2017-02-21T00:55:30.605Z,870.98
2017-02-21T00:55:35.253Z,871
2017-02-21T00:55:39.759Z,870.98
2017-02-21T00:55:44.406Z,871.03
2017-02-21T00:55:48.924Z,871.01
2017-02-21T00:55:53.448Z,871.02
2017-02-21T00:55:58.121Z,871.03
2017-02-21T00:56:03.116Z,871.04
2017-02-21T00:56:07.627Z,871.04
2017-02-21T00:56:12.111Z,871.02
2017-02-21T00:56:16.613Z,871.03
2017-02-21T00:56:21.254Z,871.04
2017-02-21T00:56:25.764Z,871.04
2017-02-21T00:56:30.436Z,871.03
2017-02-21T00:56:34.944Z,871.01
2017-02-21T00:56:39.614Z,871.02
2017-02-21T00:56:44.257Z,871.05
2017-02-21T00:56:48.768Z,871.06
2017-02-21T00:56:53.449Z,871.07
2017-02-21T00:56:58.095Z,871.03
2017-02-21T00:57:02.733Z,871.05
2017-02-21T00:57:07.239Z,871.06
2017-02-21T00:57:11.734Z,871.03
2017-02-21T00:57:16.237Z,871.06
2017-02-21T00:57:20.747Z,871.05
2017-02-21T00:57:25.232Z,871.03